createdAt,value
2023-09-06T00:02:23.567Z,13.40
2023-09-06T00:04:51.774Z,13.80
2023-09-06T00:07:19.390Z,16.40
2023-09-06T00:09:46.861Z,22.90
2023-09-06T00:12:14.225Z,13.70
2023-09-06T00:14:41.637Z,10.50
2023-09-06T00:17:09.806Z,10.60
2023-09-06T00:19:37.215Z,11.10
2023-09-06T00:22:04.656Z,13.30
2023-09-06T00:24:32.636Z,10.60
2023-09-06T00:27:04.602Z,10.50
2023-09-06T00:29:33.673Z,9.30
2023-09-06T00:32:01.099Z,11.30
2023-09-06T00:34:28.587Z,10.30
2023-09-06T00:36:56.035Z,10.50
2023-09-06T00:39:24.612Z,10.80
2023-09-06T00:41:52.131Z,11.10
2023-09-06T00:44:20.998Z,13.70
2023-09-06T00:46:48.890Z,12.30
2023-09-06T00:49:16.610Z,13.20
2023-09-06T00:51:44.336Z,10.40
2023-09-06T00:54:11.998Z,13.90
2023-09-06T00:56:40.820Z,13.20
2023-09-06T00:59:13.902Z,11.10
2023-09-06T01:01:41.462Z,12.70
2023-09-06T01:04:10.010Z,14.30
2023-09-06T01:06:39.857Z,13.20
2023-09-06T01:09:07.832Z,12.80
2023-09-06T01:11:38.723Z,12.40
2023-09-06T01:14:06.309Z,21.60
2023-09-06T01:16:46.775Z,13.60
2023-09-06T01:19:15.991Z,16.70
2023-09-06T01:21:53.571Z,12.30
2023-09-06T01:24:22.236Z,13.80
2023-09-06T01:26:50.013Z,14.50
2023-09-06T01:29:18.895Z,15.20
2023-09-06T01:31:46.324Z,12.70
2023-09-06T01:34:14.003Z,15.50
2023-09-06T01:36:41.573Z,12.70
2023-09-06T01:39:11.882Z,12.50
2023-09-06T01:41:39.315Z,11.00
2023-09-06T01:44:06.743Z,11.70
2023-09-06T01:46:34.256Z,10.40
2023-09-06T01:49:01.803Z,11.40
2023-09-06T01:51:29.242Z,14.20
2023-09-06T01:53:56.674Z,12.40
2023-09-06T01:56:24.107Z,13.80
2023-09-06T01:58:51.554Z,14.50
2023-09-06T02:01:20.279Z,12.00
2023-09-06T02:03:48.414Z,11.20
2023-09-06T02:06:16.043Z,11.20
2023-09-06T02:08:43.503Z,10.20
2023-09-06T02:11:11.232Z,9.00
2023-09-06T02:13:38.799Z,9.70
2023-09-06T02:16:07.958Z,10.00
2023-09-06T02:18:35.600Z,10.20
2023-09-06T02:21:03.036Z,11.70
2023-09-06T02:23:30.521Z,13.00
2023-09-06T02:25:58.799Z,20.20
2023-09-06T02:28:26.499Z,11.40
2023-09-06T02:30:54.205Z,10.30
2023-09-06T02:33:21.814Z,11.60
2023-09-06T02:35:50.551Z,13.80
2023-09-06T02:38:18.101Z,10.60
2023-09-06T02:40:45.651Z,11.10
2023-09-06T02:43:14.692Z,11.50
2023-09-06T02:45:51.799Z,12.50
2023-09-06T02:48:20.284Z,16.20
2023-09-06T02:50:48.788Z,21.40
2023-09-06T02:53:28.262Z,11.90
2023-09-06T02:56:00.339Z,12.60
2023-09-06T02:58:28.751Z,13.10
2023-09-06T03:01:00.483Z,10.20
2023-09-06T03:03:29.418Z,10.10
2023-09-06T03:06:00.843Z,12.40
2023-09-06T03:08:33.698Z,11.70
2023-09-06T03:11:02.258Z,10.50
2023-09-06T03:13:30.684Z,11.50
2023-09-06T03:16:05.242Z,11.80
2023-09-06T03:18:45.928Z,13.10
2023-09-06T03:21:22.820Z,11.60
2023-09-06T03:23:52.701Z,16.80
2023-09-06T03:26:24.096Z,24.50
2023-09-06T03:28:56.100Z,14.60
2023-09-06T03:31:26.270Z,15.10
2023-09-06T03:33:53.905Z,21.80
2023-09-06T03:36:25.894Z,23.60
2023-09-06T03:38:53.322Z,16.80
2023-09-06T03:41:20.844Z,18.40
2023-09-06T03:43:48.295Z,25.90
2023-09-06T03:46:17.905Z,20.20
2023-09-06T03:48:46.809Z,19.30
2023-09-06T03:51:15.295Z,16.50
2023-09-06T03:53:43.491Z,12.20
2023-09-06T03:56:11.777Z,21.20
2023-09-06T03:58:42.007Z,14.00
2023-09-06T04:01:13.053Z,15.10
2023-09-06T04:03:41.736Z,11.20
2023-09-06T04:06:12.190Z,11.60
2023-09-06T04:08:40.204Z,12.40
2023-09-06T04:11:08.471Z,13.30
2023-09-06T04:13:36.657Z,13.00
2023-09-06T04:16:07.181Z,11.80
2023-09-06T04:18:36.184Z,13.40
2023-09-06T04:21:09.552Z,14.50
2023-09-06T04:23:41.429Z,11.70
2023-09-06T04:26:09.106Z,14.70
2023-09-06T04:28:36.959Z,11.70
2023-09-06T04:31:05.658Z,11.70
2023-09-06T04:33:33.282Z,13.10
2023-09-06T04:36:02.413Z,12.60
2023-09-06T04:38:32.475Z,11.20
2023-09-06T04:41:03.850Z,15.70
2023-09-06T04:43:31.693Z,13.20
2023-09-06T04:46:00.814Z,15.80
2023-09-06T04:48:28.673Z,12.40
2023-09-06T04:50:58.178Z,20.80
2023-09-06T04:53:26.052Z,20.80
2023-09-06T04:55:53.932Z,15.50
2023-09-06T04:58:21.828Z,16.90
2023-09-06T05:00:50.129Z,22.00
2023-09-06T05:03:19.414Z,16.60
2023-09-06T05:05:48.856Z,22.50
2023-09-06T05:08:17.734Z,19.30
2023-09-06T05:10:45.621Z,15.80
2023-09-06T05:13:13.291Z,16.00
2023-09-06T05:15:41.046Z,21.70
2023-09-06T05:18:09.572Z,16.60
2023-09-06T05:20:40.991Z,13.80
2023-09-06T05:23:11.600Z,28.20
2023-09-06T05:25:40.447Z,21.40
2023-09-06T05:28:10.810Z,20.90
2023-09-06T05:30:46.062Z,19.70
2023-09-06T05:33:16.087Z,20.10
2023-09-06T05:35:45.198Z,15.90
2023-09-06T05:38:12.762Z,15.60
2023-09-06T05:40:44.822Z,15.50
2023-09-06T05:43:13.803Z,16.70
2023-09-06T05:45:41.351Z,16.40
2023-09-06T05:48:12.160Z,17.40
2023-09-06T05:50:40.198Z,16.30
2023-09-06T05:53:07.869Z,16.70
2023-09-06T05:55:40.913Z,15.20
2023-09-06T05:58:10.762Z,21.60
2023-09-06T06:00:38.266Z,20.10
2023-09-06T06:03:06.827Z,14.40
2023-09-06T06:05:35.113Z,17.40
2023-09-06T06:08:04.500Z,16.10
2023-09-06T06:10:36.440Z,19.80
2023-09-06T06:13:05.764Z,17.10
2023-09-06T06:15:33.380Z,16.70
2023-09-06T06:18:00.868Z,14.30
2023-09-06T06:20:38.580Z,21.50
2023-09-06T06:23:14.268Z,13.80
2023-09-06T06:25:41.800Z,17.20
2023-09-06T06:28:09.621Z,13.30
2023-09-06T06:30:37.265Z,19.10
2023-09-06T06:33:08.225Z,15.40
2023-09-06T06:35:36.279Z,17.80
2023-09-06T06:38:04.084Z,16.20
2023-09-06T06:40:36.742Z,14.70
2023-09-06T06:43:04.460Z,19.70
2023-09-06T06:45:31.992Z,17.60
2023-09-06T06:48:02.508Z,15.80
2023-09-06T06:50:30.759Z,16.30
2023-09-06T06:52:58.656Z,13.90
2023-09-06T06:55:26.511Z,18.00
2023-09-06T06:57:54.018Z,19.40
2023-09-06T07:00:23.023Z,15.50
2023-09-06T07:02:50.668Z,15.10
2023-09-06T07:05:21.336Z,14.30
2023-09-06T07:07:49.785Z,14.90
2023-09-06T07:10:18.927Z,13.70
2023-09-06T07:12:46.360Z,13.20
2023-09-06T07:15:14.073Z,17.60
2023-09-06T07:17:42.730Z,14.00
2023-09-06T07:20:11.690Z,13.80
2023-09-06T07:22:39.331Z,12.70
2023-09-06T07:25:09.068Z,12.30
2023-09-06T07:27:46.521Z,12.90
2023-09-06T07:30:14.082Z,12.70
2023-09-06T07:32:41.762Z,13.20
2023-09-06T07:35:10.018Z,12.20
2023-09-06T07:37:37.735Z,11.50
2023-09-06T07:40:07.447Z,13.80
2023-09-06T07:42:39.124Z,12.50
2023-09-06T07:45:08.300Z,12.60
2023-09-06T07:47:36.214Z,13.30
2023-09-06T07:50:13.908Z,11.00
2023-09-06T07:52:41.699Z,11.30
2023-09-06T07:55:14.097Z,12.50
2023-09-06T07:57:41.813Z,11.60
2023-09-06T08:00:09.852Z,9.60
2023-09-06T08:02:37.497Z,8.80
2023-09-06T08:05:05.854Z,12.10
2023-09-06T08:07:33.628Z,9.00
2023-09-06T08:10:02.528Z,11.20
2023-09-06T08:12:30.013Z,11.60
2023-09-06T08:15:00.189Z,8.80
2023-09-06T08:17:28.434Z,10.90
2023-09-06T08:19:59.685Z,15.00
2023-09-06T08:22:35.811Z,10.90
2023-09-06T08:25:14.774Z,9.80
2023-09-06T08:27:45.625Z,10.40
2023-09-06T08:30:16.548Z,10.30
2023-09-06T08:32:46.760Z,11.30
2023-09-06T08:35:15.047Z,9.40
2023-09-06T08:37:42.640Z,10.20
2023-09-06T08:40:11.659Z,13.10
2023-09-06T08:42:39.710Z,11.50
2023-09-06T08:45:09.788Z,10.50
2023-09-06T08:47:41.910Z,9.20
2023-09-06T08:50:11.265Z,10.10
2023-09-06T08:52:44.174Z,11.80
2023-09-06T08:55:13.103Z,11.70
2023-09-06T08:57:43.067Z,12.30
2023-09-06T09:00:14.966Z,12.50
2023-09-06T09:02:43.933Z,14.90
2023-09-06T09:05:19.876Z,9.50
2023-09-06T09:07:57.106Z,8.50
2023-09-06T09:10:27.501Z,8.80
2023-09-06T09:12:59.375Z,8.50
2023-09-06T09:15:27.342Z,13.40
2023-09-06T09:20:27.766Z,10.30
2023-09-06T09:23:02.123Z,11.70
2023-09-06T09:25:29.603Z,10.10
2023-09-06T09:27:58.803Z,9.90
2023-09-06T09:30:31.433Z,7.40
2023-09-06T09:33:03.403Z,8.80
2023-09-06T09:35:35.904Z,9.30
2023-09-06T09:38:06.015Z,10.30
2023-09-06T09:40:46.462Z,8.60
2023-09-06T09:43:20.221Z,8.80
2023-09-06T09:45:48.546Z,13.00
2023-09-06T09:48:17.743Z,9.90
2023-09-06T09:50:48.419Z,15.10
2023-09-06T09:53:22.780Z,8.00
2023-09-06T09:55:56.899Z,8.90
2023-09-06T09:58:28.617Z,7.30
2023-09-06T10:01:00.459Z,9.00
2023-09-06T10:03:31.508Z,11.50
2023-09-06T10:06:02.297Z,9.00
2023-09-06T10:08:33.435Z,11.90
2023-09-06T10:11:00.869Z,9.00
2023-09-06T10:13:29.834Z,11.00
2023-09-06T10:15:58.267Z,8.90
2023-09-06T10:18:26.293Z,9.70
2023-09-06T10:20:54.857Z,11.60
2023-09-06T10:23:22.555Z,8.30
2023-09-06T10:25:55.043Z,9.30
2023-09-06T10:28:32.183Z,10.30
2023-09-06T10:31:08.988Z,8.70
2023-09-06T10:33:37.234Z,8.10
2023-09-06T10:36:14.629Z,9.30
2023-09-06T10:38:59.782Z,9.10
2023-09-06T10:41:27.961Z,9.00
2023-09-06T10:43:59.179Z,7.20
2023-09-06T10:46:29.776Z,7.50
2023-09-06T10:49:13.858Z,7.20
2023-09-06T10:51:59.247Z,6.30
2023-09-06T10:54:44.795Z,10.00
2023-09-06T10:57:16.316Z,8.00
2023-09-06T10:59:57.949Z,9.50
2023-09-06T11:02:28.015Z,7.90
2023-09-06T11:05:32.472Z,9.00
2023-09-06T11:08:01.174Z,7.10
2023-09-06T11:10:29.118Z,9.30
2023-09-06T11:12:58.487Z,10.60
2023-09-06T11:15:26.597Z,7.70
2023-09-06T11:18:00.984Z,8.00
2023-09-06T11:20:30.921Z,7.50
2023-09-06T11:23:00.885Z,10.50
2023-09-06T11:25:29.861Z,13.30
2023-09-06T11:28:01.117Z,9.10
2023-09-06T11:30:32.666Z,8.20
2023-09-06T11:33:00.573Z,8.40
2023-09-06T11:35:34.615Z,7.50
2023-09-06T11:38:09.747Z,7.20
2023-09-06T11:40:37.661Z,11.00
2023-09-06T11:43:09.217Z,6.50
2023-09-06T11:45:39.642Z,7.10
2023-09-06T11:48:15.933Z,9.20
2023-09-06T11:50:45.147Z,9.10
2023-09-06T11:53:14.901Z,6.60
2023-09-06T11:55:46.960Z,8.50
2023-09-06T11:58:17.884Z,7.80
2023-09-06T12:00:51.680Z,6.50
2023-09-06T12:03:28.248Z,7.30
2023-09-06T12:06:07.206Z,7.60
2023-09-06T12:08:36.358Z,7.10
2023-09-06T12:11:09.042Z,6.50
2023-09-06T12:13:38.962Z,8.10
2023-09-06T12:16:09.331Z,7.80
2023-09-06T12:18:38.626Z,6.20
2023-09-06T12:21:08.404Z,10.60
2023-09-06T12:23:38.704Z,8.40
2023-09-06T12:26:06.855Z,8.20
2023-09-06T12:28:35.103Z,7.10
2023-09-06T12:31:16.652Z,8.00
2023-09-06T12:33:48.950Z,7.50
2023-09-06T12:36:18.615Z,9.00
2023-09-06T12:38:47.019Z,8.00
2023-09-06T12:41:15.005Z,9.20
2023-09-06T12:43:42.484Z,7.80
2023-09-06T12:46:12.353Z,5.80
2023-09-06T12:48:40.260Z,7.40
2023-09-06T12:51:08.526Z,7.80
2023-09-06T12:53:36.636Z,7.00
2023-09-06T12:56:04.514Z,8.00
2023-09-06T12:58:33.563Z,11.90
2023-09-06T13:01:04.027Z,7.10
2023-09-06T13:03:31.772Z,7.80
2023-09-06T13:06:02.182Z,8.30
2023-09-06T13:08:32.169Z,10.30
2023-09-06T13:11:00.291Z,9.80
2023-09-06T13:13:27.831Z,8.40
2023-09-06T13:15:55.331Z,7.80
2023-09-06T13:18:23.064Z,9.10
2023-09-06T13:20:55.079Z,7.60
2023-09-06T13:23:22.536Z,6.90
2023-09-06T13:25:50.072Z,7.70
2023-09-06T13:28:18.340Z,9.10
2023-09-06T13:30:45.878Z,7.90
2023-09-06T13:33:13.459Z,8.70
2023-09-06T13:35:40.960Z,9.20
2023-09-06T13:38:08.488Z,8.30
2023-09-06T13:40:36.038Z,7.80
2023-09-06T13:43:04.153Z,14.30
2023-09-06T13:45:31.723Z,9.90
2023-09-06T13:47:59.238Z,7.70
2023-09-06T13:50:26.853Z,13.00
2023-09-06T13:52:54.327Z,9.30
2023-09-06T13:55:21.840Z,9.20
2023-09-06T13:57:49.353Z,11.70
2023-09-06T14:00:17.667Z,9.20
2023-09-06T14:02:45.343Z,9.70
2023-09-06T14:05:13.146Z,10.80
2023-09-06T14:07:40.798Z,8.40
2023-09-06T14:10:08.767Z,8.10
2023-09-06T14:12:36.193Z,7.80
2023-09-06T14:15:04.303Z,9.80
2023-09-06T14:17:31.837Z,9.10
2023-09-06T14:19:59.723Z,7.80
2023-09-06T14:22:27.735Z,8.30
2023-09-06T14:24:55.219Z,8.30
2023-09-06T14:27:22.808Z,9.50
2023-09-06T14:29:53.214Z,7.10
2023-09-06T14:32:22.258Z,8.70
2023-09-06T14:34:49.848Z,7.20
2023-09-06T14:37:17.465Z,7.00
2023-09-06T14:39:45.539Z,7.30
2023-09-06T14:42:12.993Z,8.10
2023-09-06T14:44:40.531Z,8.50
2023-09-06T14:47:08.252Z,9.00
2023-09-06T14:49:35.798Z,8.20
2023-09-06T14:52:05.718Z,9.30
2023-09-06T14:54:33.225Z,9.60
2023-09-06T14:57:00.681Z,14.30
2023-09-06T14:59:28.605Z,12.40
2023-09-06T15:01:56.106Z,11.20
2023-09-06T15:04:23.650Z,15.30
2023-09-06T15:06:59.823Z,11.30
2023-09-06T15:09:28.340Z,7.30
2023-09-06T15:11:56.339Z,8.00
2023-09-06T15:14:25.080Z,8.30
2023-09-06T15:16:52.694Z,9.30
2023-09-06T15:19:20.700Z,7.70
2023-09-06T15:21:48.178Z,8.80
2023-09-06T15:24:15.681Z,7.80
2023-09-06T15:26:43.178Z,8.10
2023-09-06T15:29:10.610Z,7.40
2023-09-06T15:31:38.074Z,8.20
2023-09-06T15:34:05.565Z,9.40
2023-09-06T15:36:33.006Z,11.30
2023-09-06T15:39:00.544Z,8.40
2023-09-06T15:41:33.206Z,11.80
2023-09-06T15:44:05.944Z,8.60
2023-09-06T15:46:33.962Z,11.20
2023-09-06T15:49:01.633Z,7.90
2023-09-06T15:51:29.785Z,9.90
2023-09-06T15:53:57.334Z,8.40
2023-09-06T15:56:24.799Z,11.80
2023-09-06T15:58:54.491Z,9.50
2023-09-06T16:01:22.215Z,11.00
2023-09-06T16:03:50.025Z,8.70
2023-09-06T16:06:17.479Z,9.00
2023-09-06T16:08:45.011Z,11.10
2023-09-06T16:11:12.805Z,9.60
2023-09-06T16:13:40.290Z,7.80
2023-09-06T16:16:07.789Z,8.80
2023-09-06T16:18:35.333Z,9.90
2023-09-06T16:21:02.789Z,14.70
2023-09-06T16:23:30.285Z,12.40
2023-09-06T16:25:57.828Z,13.00
2023-09-06T16:28:26.559Z,13.60
2023-09-06T16:30:54.027Z,13.50
2023-09-06T16:33:21.534Z,10.70
2023-09-06T16:35:49.030Z,20.20
2023-09-06T16:38:17.681Z,41.60
2023-09-06T16:40:45.862Z,28.20
2023-09-06T16:43:13.919Z,38.20
2023-09-06T16:45:41.699Z,118.10
2023-09-06T16:48:09.350Z,29.10
2023-09-06T16:50:37.028Z,26.40
2023-09-06T16:53:07.314Z,69.80
2023-09-06T16:55:34.832Z,95.80
2023-09-06T16:58:07.753Z,22.70
2023-09-06T17:00:37.666Z,35.50
2023-09-06T17:03:07.443Z,36.90
2023-09-06T17:05:35.848Z,20.10
2023-09-06T17:08:03.743Z,13.10
2023-09-06T17:10:34.372Z,13.50
2023-09-06T17:13:03.168Z,14.60
2023-09-06T17:15:32.915Z,13.80
2023-09-06T17:18:00.550Z,15.90
2023-09-06T17:20:28.235Z,23.70
2023-09-06T17:22:59.307Z,22.50
2023-09-06T17:25:27.118Z,22.50
2023-09-06T17:27:55.163Z,20.10
2023-09-06T17:30:24.289Z,17.00
2023-09-06T17:33:16.289Z,15.20
2023-09-06T17:35:49.912Z,14.20
2023-09-06T17:38:18.813Z,12.90
2023-09-06T17:40:48.322Z,10.30
2023-09-06T17:43:17.388Z,10.50
2023-09-06T17:45:50.161Z,11.20
2023-09-06T17:48:19.931Z,9.50
2023-09-06T17:50:54.020Z,10.80
2023-09-06T17:53:26.442Z,9.50
2023-09-06T17:56:08.957Z,14.30
2023-09-06T17:58:38.740Z,14.70
2023-09-06T18:01:12.191Z,13.30
2023-09-06T18:03:41.967Z,13.10
2023-09-06T18:06:10.996Z,11.00
2023-09-06T18:08:39.784Z,10.70
2023-09-06T18:11:08.109Z,12.30
2023-09-06T18:13:37.955Z,14.00
2023-09-06T18:16:07.041Z,12.60
2023-09-06T18:18:35.213Z,79.70
2023-09-06T18:21:05.066Z,76.10
2023-09-06T18:23:33.651Z,65.50
2023-09-06T18:26:01.413Z,21.50
2023-09-06T18:28:30.508Z,10.80
2023-09-06T18:30:59.929Z,14.00
2023-09-06T18:33:27.715Z,14.60
2023-09-06T18:35:56.331Z,14.30
2023-09-06T18:38:25.602Z,16.70
2023-09-06T18:40:56.801Z,14.70
2023-09-06T18:43:25.208Z,14.40
2023-09-06T18:45:53.701Z,13.70
2023-09-06T18:48:23.219Z,12.80
2023-09-06T18:50:51.655Z,14.20
2023-09-06T18:53:21.537Z,15.00
2023-09-06T18:55:48.992Z,14.20
2023-09-06T18:58:19.593Z,12.70
2023-09-06T19:00:47.534Z,14.30
2023-09-06T19:03:16.641Z,14.40
2023-09-06T19:05:44.753Z,14.70
2023-09-06T19:08:14.419Z,11.70
2023-09-06T19:10:43.221Z,12.20
2023-09-06T19:13:11.822Z,12.10
2023-09-06T19:15:39.663Z,9.80
2023-09-06T19:18:07.658Z,11.40
2023-09-06T19:20:37.618Z,11.30
2023-09-06T19:23:07.893Z,13.50
2023-09-06T19:25:42.936Z,12.40
2023-09-06T19:28:11.405Z,15.00
2023-09-06T19:30:38.894Z,12.20
2023-09-06T19:33:06.417Z,13.80
2023-09-06T19:35:35.713Z,11.80
2023-09-06T19:38:05.718Z,16.50
2023-09-06T19:40:33.270Z,11.20
2023-09-06T19:43:01.571Z,14.60
2023-09-06T19:45:29.637Z,13.00
2023-09-06T19:47:57.200Z,10.60
2023-09-06T19:50:24.911Z,11.00
2023-09-06T19:52:52.788Z,10.90
2023-09-06T19:55:22.971Z,12.90
2023-09-06T19:57:50.603Z,11.20
2023-09-06T20:00:18.155Z,11.20
2023-09-06T20:02:45.883Z,14.20
2023-09-06T20:05:13.907Z,12.90
2023-09-06T20:07:41.540Z,10.60
2023-09-06T20:10:10.061Z,10.90
2023-09-06T20:12:37.541Z,13.60
2023-09-06T20:15:05.617Z,12.10
2023-09-06T20:17:33.332Z,11.30
2023-09-06T20:20:01.235Z,12.00
2023-09-06T20:22:28.772Z,11.30
2023-09-06T20:24:56.234Z,10.60
2023-09-06T20:27:23.956Z,11.90
2023-09-06T20:29:51.702Z,11.60
2023-09-06T20:32:19.286Z,9.20
2023-09-06T20:34:46.728Z,12.50
2023-09-06T20:37:14.256Z,12.40
2023-09-06T20:39:42.316Z,10.80
2023-09-06T20:42:10.148Z,12.60
2023-09-06T20:44:37.697Z,11.70
2023-09-06T20:47:05.359Z,12.10
2023-09-06T20:49:33.244Z,11.20
2023-09-06T20:52:00.819Z,11.90
2023-09-06T20:54:28.347Z,10.70
2023-09-06T20:56:55.811Z,12.40
2023-09-06T20:59:23.545Z,11.60
2023-09-06T21:01:51.046Z,10.00
2023-09-06T21:04:18.595Z,9.80
2023-09-06T21:06:46.316Z,10.70
2023-09-06T21:09:14.439Z,12.40
2023-09-06T21:11:42.039Z,11.50
2023-09-06T21:14:09.543Z,10.70
2023-09-06T21:16:37.088Z,11.70
2023-09-06T21:19:04.800Z,11.40
2023-09-06T21:21:32.371Z,11.60
2023-09-06T21:24:00.059Z,10.50
2023-09-06T21:26:27.617Z,10.00
2023-09-06T21:28:57.016Z,8.90
2023-09-06T21:31:25.421Z,10.90
2023-09-06T21:33:52.960Z,10.80
2023-09-06T21:36:20.543Z,15.90
2023-09-06T21:38:48.225Z,12.80
2023-09-06T21:41:15.686Z,10.50
2023-09-06T21:43:43.134Z,12.80
2023-09-06T21:46:10.609Z,11.60
2023-09-06T21:48:38.138Z,10.80
2023-09-06T21:51:14.179Z,9.90
2023-09-06T21:53:41.607Z,10.50
2023-09-06T21:56:10.336Z,11.50
2023-09-06T21:58:38.197Z,9.50
2023-09-06T22:01:06.373Z,10.20
2023-09-06T22:03:34.793Z,9.70
2023-09-06T22:06:04.442Z,21.10
2023-09-06T22:08:32.352Z,12.90
2023-09-06T22:11:00.173Z,13.00
2023-09-06T22:13:27.675Z,9.10
2023-09-06T22:15:55.700Z,9.60
2023-09-06T22:18:23.315Z,10.60
2023-09-06T22:20:50.802Z,9.60
2023-09-06T22:23:18.321Z,9.60
2023-09-06T22:25:45.810Z,9.30
2023-09-06T22:28:13.414Z,8.80
2023-09-06T22:30:42.878Z,8.20
2023-09-06T22:33:10.742Z,9.00
2023-09-06T22:35:38.395Z,10.10
2023-09-06T22:38:05.867Z,9.50
2023-09-06T22:40:34.640Z,9.70
2023-09-06T22:43:02.145Z,9.70
2023-09-06T22:45:29.611Z,9.10
2023-09-06T22:47:57.133Z,8.00
2023-09-06T22:50:24.609Z,10.20
2023-09-06T22:52:52.072Z,8.00
2023-09-06T22:55:19.556Z,8.60
2023-09-06T22:57:47.049Z,8.80
2023-09-06T23:00:14.659Z,8.80
2023-09-06T23:02:43.467Z,8.10
2023-09-06T23:05:11.179Z,8.00
2023-09-06T23:07:38.659Z,11.00
2023-09-06T23:10:10.147Z,10.70
2023-09-06T23:12:40.639Z,13.00
2023-09-06T23:15:09.543Z,9.20
2023-09-06T23:17:39.874Z,9.30
2023-09-06T23:20:20.460Z,9.20
2023-09-06T23:22:51.220Z,7.80
2023-09-06T23:25:22.641Z,7.80
2023-09-06T23:27:51.950Z,8.10
2023-09-06T23:30:22.864Z,8.40
2023-09-06T23:32:58.527Z,8.20
2023-09-06T23:35:26.905Z,7.90
2023-09-06T23:37:58.479Z,9.20
2023-09-06T23:40:26.095Z,10.00
2023-09-06T23:42:59.324Z,8.20
2023-09-06T23:45:27.415Z,9.70
2023-09-06T23:47:56.916Z,9.30
2023-09-06T23:50:29.378Z,8.90
2023-09-06T23:52:57.502Z,11.50
2023-09-06T23:55:26.717Z,10.30
2023-09-06T23:57:54.192Z,8.00
